sensor_id;sensor_type;location;lat;lon;timestamp;temperature;humidity
16785;DHT22;8509;52.178;5.404;2023-07-31T00:00:31;16.10;99.90
16785;DHT22;8509;52.178;5.404;2023-07-31T00:02:56;16.20;99.90
16785;DHT22;8509;52.178;5.404;2023-07-31T00:05:22;16.30;99.90
16785;DHT22;8509;52.178;5.404;2023-07-31T00:07:48;16.30;99.90
16785;DHT22;8509;52.178;5.404;2023-07-31T00:10:13;16.30;99.90
16785;DHT22;8509;52.178;5.404;2023-07-31T00:12:40;16.30;99.90
16785;DHT22;8509;52.178;5.404;2023-07-31T00:15:07;16.30;99.90
16785;DHT22;8509;52.178;5.404;2023-07-31T00:17:33;16.40;99.90
16785;DHT22;8509;52.178;5.404;2023-07-31T00:19:58;16.40;99.90
16785;DHT22;8509;52.178;5.404;2023-07-31T00:22:24;16.40;99.90
16785;DHT22;8509;52.178;5.404;2023-07-31T00:24:50;16.40;99.90
16785;DHT22;8509;52.178;5.404;2023-07-31T00:27:15;16.40;99.90
16785;DHT22;8509;52.178;5.404;2023-07-31T00:29:41;16.50;99.90
16785;DHT22;8509;52.178;5.404;2023-07-31T00:32:07;16.50;99.90
16785;DHT22;8509;52.178;5.404;2023-07-31T00:34:33;16.50;99.90
16785;DHT22;8509;52.178;5.404;2023-07-31T00:36:59;16.60;99.90
16785;DHT22;8509;52.178;5.404;2023-07-31T00:39:25;16.60;99.90
16785;DHT22;8509;52.178;5.404;2023-07-31T00:41:51;16.60;99.90
16785;DHT22;8509;52.178;5.404;2023-07-31T00:44:16;16.60;99.90
16785;DHT22;8509;52.178;5.404;2023-07-31T00:46:42;16.60;99.90
16785;DHT22;8509;52.178;5.404;2023-07-31T00:49:08;16.70;99.90
16785;DHT22;8509;52.178;5.404;2023-07-31T00:51:34;16.60;99.90
16785;DHT22;8509;52.178;5.404;2023-07-31T00:54:00;16.60;99.90
16785;DHT22;8509;52.178;5.404;2023-07-31T00:56:27;16.60;99.90
16785;DHT22;8509;52.178;5.404;2023-07-31T00:58:53;16.60;99.90
16785;DHT22;8509;52.178;5.404;2023-07-31T01:01:19;16.70;99.90
16785;DHT22;8509;52.178;5.404;2023-07-31T01:03:44;16.70;99.90
16785;DHT22;8509;52.178;5.404;2023-07-31T01:09:11;16.70;99.90
16785;DHT22;8509;52.178;5.404;2023-07-31T01:12:09;16.80;99.90
16785;DHT22;8509;52.178;5.404;2023-07-31T01:14:37;16.80;99.90
16785;DHT22;8509;52.178;5.404;2023-07-31T01:17:03;16.80;99.90
16785;DHT22;8509;52.178;5.404;2023-07-31T01:19:29;16.70;99.90
16785;DHT22;8509;52.178;5.404;2023-07-31T01:25:30;16.80;99.90
16785;DHT22;8509;52.178;5.404;2023-07-31T01:28:19;16.70;99.90
16785;DHT22;8509;52.178;5.404;2023-07-31T01:30:48;16.70;99.90
16785;DHT22;8509;52.178;5.404;2023-07-31T01:33:15;16.60;99.90
16785;DHT22;8509;52.178;5.404;2023-07-31T01:35:46;16.60;99.90
16785;DHT22;8509;52.178;5.404;2023-07-31T01:38:15;16.50;99.90
16785;DHT22;8509;52.178;5.404;2023-07-31T01:40:43;16.60;99.90
16785;DHT22;8509;52.178;5.404;2023-07-31T01:43:09;16.50;99.90
16785;DHT22;8509;52.178;5.404;2023-07-31T01:45:35;16.60;99.90
16785;DHT22;8509;52.178;5.404;2023-07-31T01:48:00;16.60;99.90
16785;DHT22;8509;52.178;5.404;2023-07-31T01:50:26;16.50;99.90
16785;DHT22;8509;52.178;5.404;2023-07-31T01:52:51;16.50;99.90
16785;DHT22;8509;52.178;5.404;2023-07-31T01:55:17;16.60;99.90
16785;DHT22;8509;52.178;5.404;2023-07-31T01:57:43;16.60;99.90
16785;DHT22;8509;52.178;5.404;2023-07-31T02:00:08;16.60;99.90
16785;DHT22;8509;52.178;5.404;2023-07-31T02:02:34;16.70;99.90
16785;DHT22;8509;52.178;5.404;2023-07-31T02:05:00;16.70;99.90
16785;DHT22;8509;52.178;5.404;2023-07-31T02:07:26;16.70;99.90
16785;DHT22;8509;52.178;5.404;2023-07-31T02:09:52;16.70;99.90
16785;DHT22;8509;52.178;5.404;2023-07-31T02:12:19;16.70;99.90
16785;DHT22;8509;52.178;5.404;2023-07-31T02:14:44;16.80;99.90
16785;DHT22;8509;52.178;5.404;2023-07-31T02:17:10;16.80;99.90
16785;DHT22;8509;52.178;5.404;2023-07-31T02:19:36;16.80;99.90
16785;DHT22;8509;52.178;5.404;2023-07-31T02:22:01;16.80;99.90
16785;DHT22;8509;52.178;5.404;2023-07-31T02:24:27;16.80;99.90
16785;DHT22;8509;52.178;5.404;2023-07-31T02:26:53;16.80;99.90
16785;DHT22;8509;52.178;5.404;2023-07-31T02:29:19;16.70;99.90
16785;DHT22;8509;52.178;5.404;2023-07-31T02:31:44;16.70;99.90
16785;DHT22;8509;52.178;5.404;2023-07-31T02:34:10;16.80;99.90
16785;DHT22;8509;52.178;5.404;2023-07-31T02:36:36;16.80;99.90
16785;DHT22;8509;52.178;5.404;2023-07-31T02:39:01;16.70;99.90
16785;DHT22;8509;52.178;5.404;2023-07-31T02:41:27;16.80;99.90
16785;DHT22;8509;52.178;5.404;2023-07-31T02:43:53;16.80;99.90
16785;DHT22;8509;52.178;5.404;2023-07-31T02:46:19;16.80;99.90
16785;DHT22;8509;52.178;5.404;2023-07-31T02:48:45;16.90;99.90
16785;DHT22;8509;52.178;5.404;2023-07-31T02:51:12;16.80;99.90
16785;DHT22;8509;52.178;5.404;2023-07-31T02:53:38;16.70;99.90
16785;DHT22;8509;52.178;5.404;2023-07-31T02:56:03;16.80;99.90
16785;DHT22;8509;52.178;5.404;2023-07-31T02:58:29;16.80;99.90
16785;DHT22;8509;52.178;5.404;2023-07-31T03:00:55;16.80;99.90
16785;DHT22;8509;52.178;5.404;2023-07-31T03:03:20;16.80;99.90
16785;DHT22;8509;52.178;5.404;2023-07-31T03:05:46;16.80;99.90
16785;DHT22;8509;52.178;5.404;2023-07-31T03:08:12;16.80;99.90
16785;DHT22;8509;52.178;5.404;2023-07-31T03:10:37;16.80;99.90
16785;DHT22;8509;52.178;5.404;2023-07-31T03:13:03;16.80;99.90
16785;DHT22;8509;52.178;5.404;2023-07-31T03:15:28;16.90;99.90
16785;DHT22;8509;52.178;5.404;2023-07-31T03:17:54;16.80;99.90
16785;DHT22;8509;52.178;5.404;2023-07-31T03:20:20;16.90;99.90
16785;DHT22;8509;52.178;5.404;2023-07-31T03:22:45;16.90;99.90
16785;DHT22;8509;52.178;5.404;2023-07-31T03:25:11;16.90;99.90
16785;DHT22;8509;52.178;5.404;2023-07-31T03:27:37;16.80;99.90
16785;DHT22;8509;52.178;5.404;2023-07-31T03:30:03;16.80;99.90
16785;DHT22;8509;52.178;5.404;2023-07-31T03:32:29;16.80;99.90
16785;DHT22;8509;52.178;5.404;2023-07-31T03:34:55;16.80;99.90
16785;DHT22;8509;52.178;5.404;2023-07-31T03:37:20;16.90;99.90
16785;DHT22;8509;52.178;5.404;2023-07-31T03:39:46;16.90;99.90
16785;DHT22;8509;52.178;5.404;2023-07-31T03:42:12;16.80;99.90
16785;DHT22;8509;52.178;5.404;2023-07-31T03:44:37;16.80;99.90
16785;DHT22;8509;52.178;5.404;2023-07-31T03:47:03;16.80;99.90
16785;DHT22;8509;52.178;5.404;2023-07-31T03:49:29;16.80;99.90
16785;DHT22;8509;52.178;5.404;2023-07-31T03:51:55;16.80;99.90
16785;DHT22;8509;52.178;5.404;2023-07-31T03:54:21;16.80;99.90
16785;DHT22;8509;52.178;5.404;2023-07-31T03:56:47;16.80;99.90
16785;DHT22;8509;52.178;5.404;2023-07-31T03:59:12;16.90;99.90
16785;DHT22;8509;52.178;5.404;2023-07-31T04:01:38;16.80;99.90
16785;DHT22;8509;52.178;5.404;2023-07-31T04:04:04;16.70;99.90
16785;DHT22;8509;52.178;5.404;2023-07-31T04:06:30;16.70;99.90
16785;DHT22;8509;52.178;5.404;2023-07-31T04:08:56;16.70;99.90
16785;DHT22;8509;52.178;5.404;2023-07-31T04:11:23;16.80;99.90
16785;DHT22;8509;52.178;5.404;2023-07-31T04:13:48;16.80;99.90
16785;DHT22;8509;52.178;5.404;2023-07-31T04:16:14;16.80;99.90
16785;DHT22;8509;52.178;5.404;2023-07-31T04:18:40;16.80;99.90
16785;DHT22;8509;52.178;5.404;2023-07-31T04:21:05;16.80;99.90
16785;DHT22;8509;52.178;5.404;2023-07-31T04:23:31;16.80;99.90
16785;DHT22;8509;52.178;5.404;2023-07-31T04:25:57;16.80;99.90
16785;DHT22;8509;52.178;5.404;2023-07-31T04:28:22;16.80;99.90
16785;DHT22;8509;52.178;5.404;2023-07-31T04:30:48;16.90;99.90
16785;DHT22;8509;52.178;5.404;2023-07-31T04:33:14;16.80;99.90
16785;DHT22;8509;52.178;5.404;2023-07-31T04:35:39;16.80;99.90
16785;DHT22;8509;52.178;5.404;2023-07-31T04:38:05;16.80;99.90
16785;DHT22;8509;52.178;5.404;2023-07-31T04:40:31;16.80;99.90
16785;DHT22;8509;52.178;5.404;2023-07-31T04:42:56;16.90;99.90
16785;DHT22;8509;52.178;5.404;2023-07-31T04:45:22;16.80;99.90
16785;DHT22;8509;52.178;5.404;2023-07-31T04:47:48;16.80;99.90
16785;DHT22;8509;52.178;5.404;2023-07-31T04:50:14;16.80;99.90
16785;DHT22;8509;52.178;5.404;2023-07-31T04:52:39;16.80;99.90
16785;DHT22;8509;52.178;5.404;2023-07-31T04:55:05;16.80;99.90
16785;DHT22;8509;52.178;5.404;2023-07-31T04:57:31;16.80;99.90
16785;DHT22;8509;52.178;5.404;2023-07-31T04:59:56;16.80;99.90
16785;DHT22;8509;52.178;5.404;2023-07-31T05:02:23;16.70;99.90
16785;DHT22;8509;52.178;5.404;2023-07-31T05:04:49;16.80;99.90
16785;DHT22;8509;52.178;5.404;2023-07-31T05:07:15;16.70;99.90
16785;DHT22;8509;52.178;5.404;2023-07-31T05:09:42;16.70;99.90
16785;DHT22;8509;52.178;5.404;2023-07-31T05:12:08;16.70;99.90
16785;DHT22;8509;52.178;5.404;2023-07-31T05:14:33;16.70;99.90
16785;DHT22;8509;52.178;5.404;2023-07-31T05:17:00;16.60;99.90
16785;DHT22;8509;52.178;5.404;2023-07-31T05:19:26;16.70;99.90
16785;DHT22;8509;52.178;5.404;2023-07-31T05:21:52;16.70;99.90
16785;DHT22;8509;52.178;5.404;2023-07-31T05:24:17;16.70;99.90
16785;DHT22;8509;52.178;5.404;2023-07-31T05:26:43;16.60;99.90
16785;DHT22;8509;52.178;5.404;2023-07-31T05:29:10;16.60;99.90
16785;DHT22;8509;52.178;5.404;2023-07-31T05:31:35;16.60;99.90
16785;DHT22;8509;52.178;5.404;2023-07-31T05:34:01;16.60;99.90
16785;DHT22;8509;52.178;5.404;2023-07-31T05:36:27;16.60;99.90
16785;DHT22;8509;52.178;5.404;2023-07-31T05:38:52;16.60;99.90
16785;DHT22;8509;52.178;5.404;2023-07-31T05:41:18;16.60;99.90
16785;DHT22;8509;52.178;5.404;2023-07-31T05:43:43;16.70;99.90
16785;DHT22;8509;52.178;5.404;2023-07-31T05:46:09;16.60;99.90
16785;DHT22;8509;52.178;5.404;2023-07-31T05:48:36;16.60;99.90
16785;DHT22;8509;52.178;5.404;2023-07-31T05:51:01;16.60;99.90
16785;DHT22;8509;52.178;5.404;2023-07-31T05:53:27;16.60;99.90
16785;DHT22;8509;52.178;5.404;2023-07-31T05:55:53;16.60;99.90
16785;DHT22;8509;52.178;5.404;2023-07-31T05:58:19;16.60;99.90
16785;DHT22;8509;52.178;5.404;2023-07-31T06:00:44;16.60;99.90
16785;DHT22;8509;52.178;5.404;2023-07-31T06:03:10;16.70;99.90
16785;DHT22;8509;52.178;5.404;2023-07-31T06:05:36;16.60;99.90
16785;DHT22;8509;52.178;5.404;2023-07-31T06:08:02;16.60;99.90
16785;DHT22;8509;52.178;5.404;2023-07-31T06:10:28;16.70;99.90
16785;DHT22;8509;52.178;5.404;2023-07-31T06:12:53;16.70;99.90
16785;DHT22;8509;52.178;5.404;2023-07-31T06:15:19;16.70;99.90
16785;DHT22;8509;52.178;5.404;2023-07-31T06:17:45;16.70;99.90
16785;DHT22;8509;52.178;5.404;2023-07-31T06:20:11;16.70;99.90
16785;DHT22;8509;52.178;5.404;2023-07-31T06:22:36;16.70;99.90
16785;DHT22;8509;52.178;5.404;2023-07-31T06:25:02;16.80;99.90
16785;DHT22;8509;52.178;5.404;2023-07-31T06:27:28;16.80;99.90
16785;DHT22;8509;52.178;5.404;2023-07-31T06:29:54;16.80;99.90
16785;DHT22;8509;52.178;5.404;2023-07-31T06:32:19;16.60;99.90
16785;DHT22;8509;52.178;5.404;2023-07-31T06:34:45;16.80;99.90
16785;DHT22;8509;52.178;5.404;2023-07-31T06:37:12;16.70;99.90
16785;DHT22;8509;52.178;5.404;2023-07-31T06:39:38;16.80;99.90
16785;DHT22;8509;52.178;5.404;2023-07-31T06:42:05;16.80;99.90
16785;DHT22;8509;52.178;5.404;2023-07-31T06:44:31;16.90;99.90
16785;DHT22;8509;52.178;5.404;2023-07-31T06:46:56;16.90;99.90
16785;DHT22;8509;52.178;5.404;2023-07-31T06:49:22;17.00;99.90
16785;DHT22;8509;52.178;5.404;2023-07-31T06:51:48;17.00;99.90
16785;DHT22;8509;52.178;5.404;2023-07-31T06:54:13;17.00;99.90
16785;DHT22;8509;52.178;5.404;2023-07-31T06:56:39;17.00;99.90
16785;DHT22;8509;52.178;5.404;2023-07-31T06:59:05;17.10;99.90
16785;DHT22;8509;52.178;5.404;2023-07-31T07:01:30;17.10;99.90
16785;DHT22;8509;52.178;5.404;2023-07-31T07:03:56;17.10;99.90
16785;DHT22;8509;52.178;5.404;2023-07-31T07:06:22;17.20;99.90
16785;DHT22;8509;52.178;5.404;2023-07-31T07:08:48;17.30;99.90
16785;DHT22;8509;52.178;5.404;2023-07-31T07:11:13;17.30;99.90
16785;DHT22;8509;52.178;5.404;2023-07-31T07:13:39;17.30;99.90
16785;DHT22;8509;52.178;5.404;2023-07-31T07:16:05;17.30;99.90
16785;DHT22;8509;52.178;5.404;2023-07-31T07:18:30;17.40;99.90
16785;DHT22;8509;52.178;5.404;2023-07-31T07:20:56;17.30;99.90
16785;DHT22;8509;52.178;5.404;2023-07-31T07:23:23;17.40;99.90
16785;DHT22;8509;52.178;5.404;2023-07-31T07:25:49;17.40;99.90
16785;DHT22;8509;52.178;5.404;2023-07-31T07:28:15;17.40;99.90
16785;DHT22;8509;52.178;5.404;2023-07-31T07:30:42;17.40;99.90
16785;DHT22;8509;52.178;5.404;2023-07-31T07:33:07;17.40;99.90
16785;DHT22;8509;52.178;5.404;2023-07-31T07:35:34;17.40;99.90
16785;DHT22;8509;52.178;5.404;2023-07-31T07:38:00;17.50;99.90
16785;DHT22;8509;52.178;5.404;2023-07-31T07:40:26;17.50;99.90
16785;DHT22;8509;52.178;5.404;2023-07-31T07:42:52;17.50;99.90
16785;DHT22;8509;52.178;5.404;2023-07-31T07:45:18;17.60;99.90
16785;DHT22;8509;52.178;5.404;2023-07-31T07:47:43;17.60;99.90
16785;DHT22;8509;52.178;5.404;2023-07-31T07:50:09;17.70;99.90
16785;DHT22;8509;52.178;5.404;2023-07-31T07:52:35;17.70;99.90
16785;DHT22;8509;52.178;5.404;2023-07-31T07:55:00;17.70;99.90
16785;DHT22;8509;52.178;5.404;2023-07-31T07:57:26;17.70;99.90
16785;DHT22;8509;52.178;5.404;2023-07-31T07:59:52;17.80;99.90
16785;DHT22;8509;52.178;5.404;2023-07-31T08:02:18;17.90;99.90
16785;DHT22;8509;52.178;5.404;2023-07-31T08:04:44;17.90;99.90
16785;DHT22;8509;52.178;5.404;2023-07-31T08:07:13;18.00;99.90
16785;DHT22;8509;52.178;5.404;2023-07-31T08:09:39;18.10;99.90
16785;DHT22;8509;52.178;5.404;2023-07-31T08:12:05;18.10;99.90
16785;DHT22;8509;52.178;5.404;2023-07-31T08:14:31;18.20;99.90
16785;DHT22;8509;52.178;5.404;2023-07-31T08:16:57;18.30;99.90
16785;DHT22;8509;52.178;5.404;2023-07-31T08:19:22;18.30;99.90
16785;DHT22;8509;52.178;5.404;2023-07-31T08:21:48;18.20;99.90
16785;DHT22;8509;52.178;5.404;2023-07-31T08:24:14;18.30;99.90
16785;DHT22;8509;52.178;5.404;2023-07-31T08:26:45;18.40;99.90
16785;DHT22;8509;52.178;5.404;2023-07-31T08:29:15;18.50;99.90
16785;DHT22;8509;52.178;5.404;2023-07-31T08:31:41;18.50;99.90
16785;DHT22;8509;52.178;5.404;2023-07-31T08:34:07;18.40;99.90
16785;DHT22;8509;52.178;5.404;2023-07-31T08:36:33;18.50;99.90
16785;DHT22;8509;52.178;5.404;2023-07-31T08:38:59;18.40;99.90
16785;DHT22;8509;52.178;5.404;2023-07-31T08:41:24;18.50;99.90
16785;DHT22;8509;52.178;5.404;2023-07-31T08:43:55;18.50;99.90
16785;DHT22;8509;52.178;5.404;2023-07-31T08:46:24;18.50;99.90
16785;DHT22;8509;52.178;5.404;2023-07-31T08:48:51;18.50;99.90
16785;DHT22;8509;52.178;5.404;2023-07-31T08:51:19;18.60;99.90
16785;DHT22;8509;52.178;5.404;2023-07-31T08:53:45;18.90;99.90
16785;DHT22;8509;52.178;5.404;2023-07-31T08:56:11;19.00;99.90
16785;DHT22;8509;52.178;5.404;2023-07-31T08:58:39;19.00;99.90
16785;DHT22;8509;52.178;5.404;2023-07-31T09:01:06;19.00;99.90
16785;DHT22;8509;52.178;5.404;2023-07-31T09:03:34;19.10;99.90
16785;DHT22;8509;52.178;5.404;2023-07-31T09:06:03;19.20;99.90
16785;DHT22;8509;52.178;5.404;2023-07-31T09:08:31;19.40;99.90
16785;DHT22;8509;52.178;5.404;2023-07-31T09:11:00;19.60;99.90
16785;DHT22;8509;52.178;5.404;2023-07-31T09:13:29;19.70;99.90
16785;DHT22;8509;52.178;5.404;2023-07-31T09:15:55;19.80;99.90
16785;DHT22;8509;52.178;5.404;2023-07-31T09:18:20;19.80;99.90
16785;DHT22;8509;52.178;5.404;2023-07-31T09:21:01;19.80;99.90
16785;DHT22;8509;52.178;5.404;2023-07-31T09:23:46;19.70;99.90
16785;DHT22;8509;52.178;5.404;2023-07-31T09:26:34;19.70;99.90
16785;DHT22;8509;52.178;5.404;2023-07-31T09:29:06;19.60;99.90
16785;DHT22;8509;52.178;5.404;2023-07-31T09:31:41;19.60;99.90
16785;DHT22;8509;52.178;5.404;2023-07-31T09:34:07;19.70;99.90
16785;DHT22;8509;52.178;5.404;2023-07-31T09:36:41;19.90;99.90
16785;DHT22;8509;52.178;5.404;2023-07-31T09:39:09;20.10;99.90
16785;DHT22;8509;52.178;5.404;2023-07-31T09:41:46;20.50;99.90
16785;DHT22;8509;52.178;5.404;2023-07-31T09:44:12;20.70;99.90
16785;DHT22;8509;52.178;5.404;2023-07-31T09:46:38;20.80;99.90
16785;DHT22;8509;52.178;5.404;2023-07-31T09:49:11;20.90;99.90
16785;DHT22;8509;52.178;5.404;2023-07-31T09:51:37;21.00;99.90
16785;DHT22;8509;52.178;5.404;2023-07-31T09:54:13;21.00;99.90
16785;DHT22;8509;52.178;5.404;2023-07-31T09:56:46;20.80;99.90
16785;DHT22;8509;52.178;5.404;2023-07-31T09:59:14;20.50;99.90
16785;DHT22;8509;52.178;5.404;2023-07-31T10:01:41;20.60;99.90
16785;DHT22;8509;52.178;5.404;2023-07-31T10:04:11;20.60;99.90
16785;DHT22;8509;52.178;5.404;2023-07-31T10:06:38;20.60;99.90
16785;DHT22;8509;52.178;5.404;2023-07-31T10:09:11;20.50;99.90
16785;DHT22;8509;52.178;5.404;2023-07-31T10:11:41;20.30;99.90
16785;DHT22;8509;52.178;5.404;2023-07-31T10:14:07;20.00;99.90
16785;DHT22;8509;52.178;5.404;2023-07-31T10:16:37;19.90;99.90
16785;DHT22;8509;52.178;5.404;2023-07-31T10:19:03;19.80;99.90
16785;DHT22;8509;52.178;5.404;2023-07-31T10:21:31;19.80;99.90
16785;DHT22;8509;52.178;5.404;2023-07-31T10:24:02;19.80;99.90
16785;DHT22;8509;52.178;5.404;2023-07-31T10:26:29;20.00;99.90
16785;DHT22;8509;52.178;5.404;2023-07-31T10:28:56;20.30;99.90
16785;DHT22;8509;52.178;5.404;2023-07-31T10:31:24;20.60;99.90
16785;DHT22;8509;52.178;5.404;2023-07-31T10:33:52;20.80;99.90
16785;DHT22;8509;52.178;5.404;2023-07-31T10:36:20;20.90;99.90
16785;DHT22;8509;52.178;5.404;2023-07-31T10:38:49;21.00;99.90
16785;DHT22;8509;52.178;5.404;2023-07-31T10:41:16;20.90;99.90
16785;DHT22;8509;52.178;5.404;2023-07-31T10:43:42;20.80;99.90
16785;DHT22;8509;52.178;5.404;2023-07-31T10:46:11;20.70;99.90
16785;DHT22;8509;52.178;5.404;2023-07-31T10:48:39;20.70;99.90
16785;DHT22;8509;52.178;5.404;2023-07-31T10:51:08;20.70;99.90
16785;DHT22;8509;52.178;5.404;2023-07-31T10:53:35;20.70;99.90
16785;DHT22;8509;52.178;5.404;2023-07-31T10:56:08;20.50;99.90
16785;DHT22;8509;52.178;5.404;2023-07-31T10:58:34;20.30;99.90
16785;DHT22;8509;52.178;5.404;2023-07-31T11:01:02;20.40;99.90
16785;DHT22;8509;52.178;5.404;2023-07-31T11:03:47;20.30;99.90
16785;DHT22;8509;52.178;5.404;2023-07-31T11:06:15;20.30;99.90
16785;DHT22;8509;52.178;5.404;2023-07-31T11:08:46;20.40;99.90
16785;DHT22;8509;52.178;5.404;2023-07-31T11:11:14;20.40;99.90
16785;DHT22;8509;52.178;5.404;2023-07-31T11:16:26;20.50;99.90
16785;DHT22;8509;52.178;5.404;2023-07-31T11:18:54;20.70;99.90
16785;DHT22;8509;52.178;5.404;2023-07-31T11:21:23;20.90;99.90
16785;DHT22;8509;52.178;5.404;2023-07-31T11:23:51;21.10;99.90
16785;DHT22;8509;52.178;5.404;2023-07-31T11:26:18;21.30;99.90
16785;DHT22;8509;52.178;5.404;2023-07-31T11:28:47;21.60;99.90
16785;DHT22;8509;52.178;5.404;2023-07-31T11:31:12;21.60;99.90
16785;DHT22;8509;52.178;5.404;2023-07-31T11:33:38;21.40;99.90
16785;DHT22;8509;52.178;5.404;2023-07-31T11:36:04;21.20;99.90
16785;DHT22;8509;52.178;5.404;2023-07-31T11:38:34;21.20;99.90
16785;DHT22;8509;52.178;5.404;2023-07-31T11:41:01;21.10;99.90
16785;DHT22;8509;52.178;5.404;2023-07-31T11:43:28;21.30;99.90
16785;DHT22;8509;52.178;5.404;2023-07-31T11:46:00;21.40;99.90
16785;DHT22;8509;52.178;5.404;2023-07-31T11:48:33;21.50;99.90
16785;DHT22;8509;52.178;5.404;2023-07-31T11:51:09;21.40;99.90
16785;DHT22;8509;52.178;5.404;2023-07-31T11:53:54;21.30;99.90
16785;DHT22;8509;52.178;5.404;2023-07-31T11:56:21;21.10;99.90
16785;DHT22;8509;52.178;5.404;2023-07-31T11:58:59;20.70;99.90
16785;DHT22;8509;52.178;5.404;2023-07-31T12:01:28;20.50;99.90
16785;DHT22;8509;52.178;5.404;2023-07-31T12:03:54;20.30;99.90
16785;DHT22;8509;52.178;5.404;2023-07-31T12:06:20;20.30;99.90
16785;DHT22;8509;52.178;5.404;2023-07-31T12:08:46;20.20;99.90
16785;DHT22;8509;52.178;5.404;2023-07-31T12:11:12;20.10;99.90
16785;DHT22;8509;52.178;5.404;2023-07-31T12:13:43;20.10;99.90
16785;DHT22;8509;52.178;5.404;2023-07-31T12:16:08;20.20;99.90
16785;DHT22;8509;52.178;5.404;2023-07-31T12:18:36;20.10;99.90
16785;DHT22;8509;52.178;5.404;2023-07-31T12:21:03;20.20;99.90
16785;DHT22;8509;52.178;5.404;2023-07-31T12:23:31;20.20;99.90
16785;DHT22;8509;52.178;5.404;2023-07-31T12:26:05;20.30;99.90
16785;DHT22;8509;52.178;5.404;2023-07-31T12:28:36;20.30;99.90
16785;DHT22;8509;52.178;5.404;2023-07-31T12:31:04;20.40;99.90
16785;DHT22;8509;52.178;5.404;2023-07-31T12:33:37;20.50;99.90
16785;DHT22;8509;52.178;5.404;2023-07-31T12:36:12;20.60;99.90
16785;DHT22;8509;52.178;5.404;2023-07-31T12:38:38;20.40;99.90
16785;DHT22;8509;52.178;5.404;2023-07-31T12:41:04;20.30;99.90
16785;DHT22;8509;52.178;5.404;2023-07-31T12:43:32;20.10;99.90
16785;DHT22;8509;52.178;5.404;2023-07-31T12:45:58;20.10;99.90
16785;DHT22;8509;52.178;5.404;2023-07-31T12:48:24;20.10;99.90
16785;DHT22;8509;52.178;5.404;2023-07-31T12:50:50;20.20;99.90
16785;DHT22;8509;52.178;5.404;2023-07-31T12:53:16;20.10;99.90
16785;DHT22;8509;52.178;5.404;2023-07-31T12:55:41;20.10;99.90
16785;DHT22;8509;52.178;5.404;2023-07-31T12:58:07;20.10;99.90
16785;DHT22;8509;52.178;5.404;2023-07-31T13:00:33;20.30;99.90
16785;DHT22;8509;52.178;5.404;2023-07-31T13:02:59;20.60;99.90
16785;DHT22;8509;52.178;5.404;2023-07-31T13:05:26;20.90;99.90
16785;DHT22;8509;52.178;5.404;2023-07-31T13:07:52;21.20;99.90
16785;DHT22;8509;52.178;5.404;2023-07-31T13:10:18;21.30;99.90
16785;DHT22;8509;52.178;5.404;2023-07-31T13:12:43;21.40;99.90
16785;DHT22;8509;52.178;5.404;2023-07-31T13:15:11;21.60;99.90
16785;DHT22;8509;52.178;5.404;2023-07-31T13:17:38;21.90;99.90
16785;DHT22;8509;52.178;5.404;2023-07-31T13:20:04;22.00;99.90
16785;DHT22;8509;52.178;5.404;2023-07-31T13:22:30;22.10;99.90
16785;DHT22;8509;52.178;5.404;2023-07-31T13:24:56;22.00;99.90
16785;DHT22;8509;52.178;5.404;2023-07-31T13:27:21;21.90;99.90
16785;DHT22;8509;52.178;5.404;2023-07-31T13:29:48;21.70;99.90
16785;DHT22;8509;52.178;5.404;2023-07-31T13:32:15;21.60;99.90
16785;DHT22;8509;52.178;5.404;2023-07-31T13:34:41;21.60;99.90
16785;DHT22;8509;52.178;5.404;2023-07-31T13:37:07;21.80;99.90
16785;DHT22;8509;52.178;5.404;2023-07-31T13:39:32;22.00;99.90
16785;DHT22;8509;52.178;5.404;2023-07-31T13:42:05;21.90;99.90
16785;DHT22;8509;52.178;5.404;2023-07-31T13:44:36;21.60;99.90
16785;DHT22;8509;52.178;5.404;2023-07-31T13:47:02;21.40;99.90
16785;DHT22;8509;52.178;5.404;2023-07-31T13:49:28;21.10;99.90
16785;DHT22;8509;52.178;5.404;2023-07-31T13:51:54;20.80;99.90
16785;DHT22;8509;52.178;5.404;2023-07-31T13:54:20;20.80;99.90
16785;DHT22;8509;52.178;5.404;2023-07-31T13:56:45;20.70;99.90
16785;DHT22;8509;52.178;5.404;2023-07-31T13:59:11;20.70;99.90
16785;DHT22;8509;52.178;5.404;2023-07-31T14:01:37;20.80;99.90
16785;DHT22;8509;52.178;5.404;2023-07-31T14:04:03;20.90;99.90
16785;DHT22;8509;52.178;5.404;2023-07-31T14:06:29;21.00;99.90
16785;DHT22;8509;52.178;5.404;2023-07-31T14:08:54;21.10;99.90
16785;DHT22;8509;52.178;5.404;2023-07-31T14:11:24;21.00;99.90
16785;DHT22;8509;52.178;5.404;2023-07-31T14:13:50;21.00;99.90
16785;DHT22;8509;52.178;5.404;2023-07-31T14:16:16;20.90;99.90
16785;DHT22;8509;52.178;5.404;2023-07-31T14:18:42;20.80;99.90
16785;DHT22;8509;52.178;5.404;2023-07-31T14:21:08;20.60;99.90
16785;DHT22;8509;52.178;5.404;2023-07-31T14:23:34;20.40;99.90
16785;DHT22;8509;52.178;5.404;2023-07-31T14:25:59;20.30;99.90
16785;DHT22;8509;52.178;5.404;2023-07-31T14:28:25;20.30;99.90
16785;DHT22;8509;52.178;5.404;2023-07-31T14:30:51;20.30;99.90
16785;DHT22;8509;52.178;5.404;2023-07-31T14:33:23;20.40;99.90
16785;DHT22;8509;52.178;5.404;2023-07-31T14:35:49;20.50;99.90
16785;DHT22;8509;52.178;5.404;2023-07-31T14:38:16;20.60;99.90
16785;DHT22;8509;52.178;5.404;2023-07-31T14:40:41;20.40;99.90
16785;DHT22;8509;52.178;5.404;2023-07-31T14:43:07;20.40;99.90
16785;DHT22;8509;52.178;5.404;2023-07-31T14:45:33;20.30;99.90
16785;DHT22;8509;52.178;5.404;2023-07-31T14:47:59;20.30;99.90
16785;DHT22;8509;52.178;5.404;2023-07-31T14:50:25;20.20;99.90
16785;DHT22;8509;52.178;5.404;2023-07-31T14:52:52;20.10;99.90
16785;DHT22;8509;52.178;5.404;2023-07-31T14:55:19;20.00;99.90
16785;DHT22;8509;52.178;5.404;2023-07-31T14:57:45;19.90;99.90
16785;DHT22;8509;52.178;5.404;2023-07-31T15:00:11;19.90;99.90
16785;DHT22;8509;52.178;5.404;2023-07-31T15:02:38;19.90;99.90
16785;DHT22;8509;52.178;5.404;2023-07-31T15:05:04;19.80;99.90
16785;DHT22;8509;52.178;5.404;2023-07-31T15:07:30;19.80;99.90
16785;DHT22;8509;52.178;5.404;2023-07-31T15:09:55;19.80;99.90
16785;DHT22;8509;52.178;5.404;2023-07-31T15:12:22;19.80;99.90
16785;DHT22;8509;52.178;5.404;2023-07-31T15:14:49;19.80;99.90
16785;DHT22;8509;52.178;5.404;2023-07-31T15:17:16;19.70;99.90
16785;DHT22;8509;52.178;5.404;2023-07-31T15:19:42;19.70;99.90
16785;DHT22;8509;52.178;5.404;2023-07-31T15:22:07;19.60;99.90
16785;DHT22;8509;52.178;5.404;2023-07-31T15:24:33;19.50;99.90
16785;DHT22;8509;52.178;5.404;2023-07-31T15:26:59;19.50;99.90
16785;DHT22;8509;52.178;5.404;2023-07-31T15:29:28;19.50;99.90
16785;DHT22;8509;52.178;5.404;2023-07-31T15:31:54;19.40;99.90
16785;DHT22;8509;52.178;5.404;2023-07-31T15:34:19;19.30;99.90
16785;DHT22;8509;52.178;5.404;2023-07-31T15:36:46;19.40;99.90
16785;DHT22;8509;52.178;5.404;2023-07-31T15:39:11;19.30;99.90
16785;DHT22;8509;52.178;5.404;2023-07-31T15:41:40;19.40;99.90
16785;DHT22;8509;52.178;5.404;2023-07-31T15:44:06;19.40;99.90
16785;DHT22;8509;52.178;5.404;2023-07-31T15:46:32;19.30;99.90
16785;DHT22;8509;52.178;5.404;2023-07-31T15:48:57;19.20;99.90
16785;DHT22;8509;52.178;5.404;2023-07-31T15:51:24;19.20;99.90